createdAt,value
2023-04-02T00:01:48.343Z,91.75
2023-04-02T00:05:51.383Z,91.66
2023-04-02T00:09:32.814Z,91.18
2023-04-02T00:13:23.602Z,91.25
2023-04-02T00:16:51.542Z,91.24
2023-04-02T00:20:20.123Z,91.33
2023-04-02T00:23:47.656Z,91.07
2023-04-02T00:27:16.863Z,91.00
2023-04-02T00:30:52.723Z,90.97
2023-04-02T00:34:22.358Z,90.97
2023-04-02T00:37:47.763Z,90.83
2023-04-02T00:41:20.326Z,90.99
2023-04-02T00:44:50.063Z,91.01
2023-04-02T00:48:32.505Z,91.08
2023-04-02T00:52:03.024Z,91.04
2023-04-02T00:55:36.320Z,91.16
2023-04-02T00:59:04.094Z,91.09
2023-04-02T01:02:33.814Z,90.81
2023-04-02T01:06:10.820Z,90.89
2023-04-02T01:09:51.703Z,90.84
2023-04-02T01:13:29.821Z,90.75
2023-04-02T01:17:03.799Z,90.76
2023-04-02T01:21:04.192Z,90.65
2023-04-02T01:24:37.246Z,90.51
2023-04-02T01:28:11.908Z,90.51
2023-04-02T01:31:41.553Z,90.57
2023-04-02T01:35:10.785Z,90.54
2023-04-02T01:38:45.318Z,90.64
2023-04-02T01:42:20.071Z,90.62
2023-04-02T01:45:47.558Z,90.80
2023-04-02T01:49:20.127Z,90.70
2023-04-02T01:52:50.801Z,90.74
2023-04-02T01:56:18.714Z,90.69
2023-04-02T01:59:47.095Z,90.80
2023-04-02T02:03:17.139Z,90.57
2023-04-02T02:06:45.722Z,90.55
2023-04-02T02:10:18.269Z,90.56
2023-04-02T02:13:53.148Z,90.49
2023-04-02T02:17:26.638Z,90.17
2023-04-02T02:20:54.335Z,90.15
2023-04-02T02:24:24.708Z,90.21
2023-04-02T02:28:00.366Z,89.91
2023-04-02T02:31:33.282Z,89.89
2023-04-02T02:35:09.640Z,90.02
2023-04-02T02:38:48.591Z,89.86
2023-04-02T02:42:29.958Z,89.69
2023-04-02T02:45:59.482Z,89.16
2023-04-02T02:49:27.336Z,89.38
2023-04-02T02:52:56.862Z,89.46
2023-04-02T02:56:26.757Z,89.49
2023-04-02T02:59:56.246Z,89.56
2023-04-02T03:03:27.480Z,89.37
2023-04-02T03:07:00.171Z,89.18
2023-04-02T03:10:35.421Z,89.26
2023-04-02T03:14:11.623Z,88.78
2023-04-02T03:17:44.634Z,88.73
2023-04-02T03:21:22.904Z,88.71
2023-04-02T03:24:57.794Z,88.78
2023-04-02T03:28:28.818Z,87.83
2023-04-02T03:32:02.748Z,87.66
2023-04-02T03:35:36.825Z,87.62
2023-04-02T03:39:13.805Z,86.74
2023-04-02T03:42:46.809Z,86.83
2023-04-02T03:46:27.295Z,86.33
2023-04-02T03:50:01.706Z,85.94
2023-04-02T03:53:32.345Z,86.10
2023-04-02T03:57:00.889Z,86.00
2023-04-02T04:00:36.486Z,85.91
2023-04-02T04:04:11.712Z,85.53
2023-04-02T04:07:42.879Z,85.71
2023-04-02T04:11:15.885Z,85.56
2023-04-02T04:14:50.583Z,85.41
2023-04-02T04:18:24.383Z,85.29
2023-04-02T04:21:54.017Z,85.37
2023-04-02T04:25:33.872Z,85.17
2023-04-02T04:29:15.699Z,85.27
2023-04-02T04:32:50.575Z,85.24
2023-04-02T04:36:28.722Z,83.56
2023-04-02T04:40:18.895Z,82.94
2023-04-02T04:43:51.629Z,82.28
2023-04-02T04:47:23.845Z,82.01
2023-04-02T04:50:55.377Z,82.34
2023-04-02T04:54:26.843Z,82.23
2023-04-02T04:58:00.682Z,82.41
2023-04-02T05:01:35.331Z,82.53
2023-04-02T05:05:05.521Z,82.88
2023-04-02T05:08:39.150Z,82.63
2023-04-02T05:12:18.366Z,82.36
2023-04-02T05:15:54.909Z,82.27
2023-04-02T05:19:31.285Z,82.57
2023-04-02T05:23:05.135Z,82.55
2023-04-02T05:26:40.259Z,82.79
2023-04-02T05:30:16.007Z,82.90
2023-04-02T05:33:49.859Z,83.61
2023-04-02T05:37:21.280Z,83.49
2023-04-02T05:40:53.623Z,83.87
2023-04-02T05:44:27.404Z,84.06
2023-04-02T05:48:01.967Z,83.88
2023-04-02T05:51:45.359Z,83.54
2023-04-02T05:55:34.746Z,83.48
2023-04-02T05:59:08.467Z,83.10
2023-04-02T06:02:41.606Z,81.74
2023-04-02T06:06:21.975Z,80.47
2023-04-02T06:09:54.600Z,80.87
2023-04-02T06:13:23.338Z,79.56
2023-04-02T06:16:52.258Z,79.09
2023-04-02T06:20:22.315Z,79.43
2023-04-02T06:23:50.249Z,79.70
2023-04-02T06:27:22.805Z,79.17
2023-04-02T06:30:53.023Z,78.61
2023-04-02T06:34:24.627Z,78.80
2023-04-02T06:38:00.763Z,78.91
2023-04-02T06:41:30.294Z,79.19
2023-04-02T06:45:24.496Z,79.63
2023-04-02T06:49:20.671Z,78.99
2023-04-02T06:52:53.321Z,79.46
2023-04-02T06:56:28.330Z,79.31
2023-04-02T06:59:55.895Z,78.90
2023-04-02T07:03:27.712Z,78.86
2023-04-02T07:06:56.896Z,78.36
2023-04-02T07:10:27.469Z,78.74
2023-04-02T07:13:54.782Z,78.58
2023-04-02T07:17:28.716Z,78.56
2023-04-02T07:20:56.797Z,78.24
2023-04-02T07:24:24.977Z,78.90
2023-04-02T07:27:53.344Z,78.34
2023-04-02T07:31:24.305Z,78.34
2023-04-02T07:34:52.374Z,78.74
2023-04-02T07:38:19.725Z,78.20
2023-04-02T07:41:57.618Z,78.49
2023-04-02T07:45:24.934Z,78.39
2023-04-02T07:48:52.238Z,77.78
2023-04-02T07:52:19.592Z,77.32
2023-04-02T07:55:46.822Z,77.92
2023-04-02T07:59:14.329Z,77.72
2023-04-02T08:02:43.086Z,77.59
2023-04-02T08:06:12.186Z,76.97
2023-04-02T08:09:39.213Z,77.16
2023-04-02T08:13:06.523Z,76.90
2023-04-02T08:16:47.712Z,76.49
2023-04-02T08:20:19.150Z,76.73
2023-04-02T08:23:46.789Z,77.16
2023-04-02T08:27:16.808Z,77.18
2023-04-02T08:30:42.995Z,76.83
2023-04-02T08:34:11.023Z,76.89
2023-04-02T08:37:38.508Z,76.65
2023-04-02T08:41:10.875Z,76.49
2023-04-02T08:44:53.172Z,76.14
2023-04-02T08:48:20.648Z,75.76
2023-04-02T08:51:49.108Z,75.58
2023-04-02T08:55:30.135Z,76.34
2023-04-02T08:59:00.851Z,75.95
2023-04-02T09:02:37.036Z,75.92
2023-04-02T09:06:06.459Z,75.56
2023-04-02T09:09:39.196Z,76.11
2023-04-02T09:13:15.478Z,76.05
2023-04-02T09:16:47.690Z,75.45
2023-04-02T09:20:21.454Z,75.42
2023-04-02T09:23:48.884Z,74.55
2023-04-02T09:27:22.148Z,73.43
2023-04-02T09:31:02.057Z,73.99
2023-04-02T09:34:35.491Z,73.85
2023-04-02T09:38:22.152Z,73.98
2023-04-02T09:42:04.551Z,72.97
2023-04-02T09:45:33.191Z,73.93
2023-04-02T09:49:02.520Z,73.07
2023-04-02T09:52:32.793Z,72.46
2023-04-02T09:56:15.701Z,71.65
2023-04-02T09:59:42.753Z,72.39
2023-04-02T10:03:24.921Z,73.08
2023-04-02T10:06:53.523Z,72.40
2023-04-02T10:10:26.366Z,72.01
2023-04-02T10:13:57.718Z,72.64
2023-04-02T10:17:28.980Z,71.86
2023-04-02T10:20:58.655Z,71.26
2023-04-02T10:24:28.791Z,71.04
2023-04-02T10:28:07.129Z,70.24
2023-04-02T10:31:41.352Z,68.62
2023-04-02T10:35:17.932Z,67.88
2023-04-02T10:38:52.554Z,68.54
2023-04-02T10:42:26.915Z,69.05
2023-04-02T10:46:01.830Z,68.54
2023-04-02T10:49:37.781Z,67.67
2023-04-02T10:53:12.618Z,68.49
2023-04-02T10:56:50.129Z,68.51
2023-04-02T11:00:23.700Z,67.98
2023-04-02T11:03:58.193Z,68.45
2023-04-02T11:07:29.584Z,67.56
2023-04-02T11:11:03.981Z,67.97
2023-04-02T11:14:33.345Z,68.71
2023-04-02T11:18:01.200Z,68.12
2023-04-02T11:21:58.044Z,68.43
2023-04-02T11:25:27.637Z,67.26
2023-04-02T11:29:08.139Z,66.82
2023-04-02T11:32:39.517Z,64.69
2023-04-02T11:36:28.278Z,65.48
2023-04-02T11:39:57.602Z,65.16
2023-04-02T11:44:01.010Z,65.44
2023-04-02T11:47:29.769Z,66.08
2023-04-02T11:50:57.683Z,65.54
2023-04-02T11:54:29.560Z,66.08
2023-04-02T11:58:35.187Z,66.09
2023-04-02T12:02:14.559Z,65.86
2023-04-02T12:05:50.989Z,67.03
2023-04-02T12:09:23.695Z,65.23
2023-04-02T12:12:51.593Z,64.76
2023-04-02T12:16:19.320Z,63.43
2023-04-02T12:19:51.132Z,63.05
2023-04-02T12:23:23.006Z,63.34
2023-04-02T12:26:50.417Z,64.01
2023-04-02T12:30:24.122Z,62.98
2023-04-02T12:33:54.565Z,62.80
2023-04-02T12:37:26.401Z,62.23
2023-04-02T12:40:58.738Z,62.61
2023-04-02T12:44:27.606Z,61.73
2023-04-02T12:47:54.951Z,61.56
2023-04-02T12:51:22.457Z,61.97
2023-04-02T12:54:52.693Z,62.57
2023-04-02T12:58:29.104Z,62.86
2023-04-02T13:02:00.807Z,62.66
2023-04-02T13:05:39.638Z,62.50
2023-04-02T13:09:09.091Z,62.13
2023-04-02T13:12:38.249Z,62.81
2023-04-02T13:16:21.028Z,62.89
2023-04-02T13:19:48.187Z,62.39
2023-04-02T13:23:36.148Z,62.02
2023-04-02T13:27:04.844Z,61.94
2023-04-02T13:30:32.275Z,61.84
2023-04-02T13:33:59.832Z,60.39
2023-04-02T13:37:27.007Z,59.69
2023-04-02T13:40:54.142Z,59.90
2023-04-02T13:44:27.301Z,60.12
2023-04-02T13:47:54.486Z,60.50
2023-04-02T13:51:24.018Z,60.45
2023-04-02T13:54:54.160Z,59.15
2023-04-02T13:58:21.289Z,60.25
2023-04-02T14:01:50.510Z,59.88
2023-04-02T14:05:32.518Z,58.75
2023-04-02T14:09:12.306Z,57.18
2023-04-02T14:12:50.056Z,56.68
2023-04-02T14:16:35.542Z,58.17
2023-04-02T14:20:23.825Z,57.49
2023-04-02T14:24:09.884Z,56.35
2023-04-02T14:27:47.245Z,57.53
2023-04-02T14:31:22.954Z,57.18
2023-04-02T14:34:57.848Z,58.49
2023-04-02T14:38:31.730Z,57.24
2023-04-02T14:42:02.638Z,57.91
2023-04-02T14:45:53.488Z,58.30
2023-04-02T14:49:26.311Z,59.53
2023-04-02T14:52:58.116Z,58.59
2023-04-02T14:56:27.016Z,56.05
2023-04-02T15:00:02.069Z,56.87
2023-04-02T15:03:35.833Z,56.51
2023-04-02T15:07:08.947Z,56.95
2023-04-02T15:10:42.307Z,56.83
2023-04-02T15:14:17.606Z,57.63
2023-04-02T15:17:45.024Z,55.63
2023-04-02T15:21:36.887Z,55.64
2023-04-02T15:25:18.502Z,53.47
2023-04-02T15:28:47.808Z,52.47
2023-04-02T15:32:27.395Z,51.64
2023-04-02T15:36:02.429Z,51.03
2023-04-02T15:39:40.164Z,50.82
2023-04-02T15:43:17.818Z,50.68
2023-04-02T15:46:55.767Z,49.85
2023-04-02T15:50:44.954Z,49.65
2023-04-02T15:54:26.004Z,49.09
2023-04-02T15:58:40.595Z,50.32
2023-04-02T16:02:31.171Z,50.11
2023-04-02T16:06:17.247Z,50.21
2023-04-02T16:09:52.653Z,49.88
2023-04-02T16:13:27.257Z,50.24
2023-04-02T16:16:57.132Z,49.02
2023-04-02T16:20:30.031Z,49.19
2023-04-02T16:23:57.131Z,49.61
2023-04-02T16:27:32.994Z,50.73
2023-04-02T16:31:08.312Z,50.87
2023-04-02T16:34:43.837Z,51.29
2023-04-02T16:38:20.764Z,51.05
2023-04-02T16:42:00.548Z,50.04
2023-04-02T16:45:36.571Z,49.97
2023-04-02T16:49:09.412Z,50.02
2023-04-02T16:52:46.801Z,49.97
2023-04-02T16:56:35.088Z,49.05
2023-04-02T17:00:18.332Z,48.74
2023-04-02T17:04:08.826Z,48.67
2023-04-02T17:07:42.682Z,49.74
2023-04-02T17:11:13.628Z,49.59
2023-04-02T17:14:48.409Z,48.99
2023-04-02T17:18:20.480Z,48.17
2023-04-02T17:21:50.202Z,48.69
2023-04-02T17:25:22.827Z,49.52
2023-04-02T17:28:51.707Z,49.12
2023-04-02T17:32:24.729Z,48.93
2023-04-02T17:36:06.940Z,49.51
2023-04-02T17:39:42.694Z,50.21
2023-04-02T17:43:17.486Z,50.73
2023-04-02T17:46:53.924Z,51.20
2023-04-02T17:50:52.179Z,52.16
2023-04-02T17:54:34.804Z,52.72
2023-04-02T17:58:13.515Z,53.26
2023-04-02T18:01:50.114Z,53.04
2023-04-02T18:05:25.155Z,52.91
2023-04-02T18:09:06.199Z,53.48
2023-04-02T18:12:50.171Z,53.66
2023-04-02T18:16:43.365Z,54.22
2023-04-02T18:20:23.133Z,54.25
2023-04-02T18:24:03.876Z,54.35
2023-04-02T18:27:55.144Z,54.05
2023-04-02T18:31:34.248Z,53.86
2023-04-02T18:35:14.866Z,53.72
2023-04-02T18:38:49.097Z,53.43
2023-04-02T18:42:30.301Z,53.59
2023-04-02T18:46:05.684Z,53.87
2023-04-02T18:49:40.760Z,54.18
2023-04-02T18:53:14.205Z,54.21
2023-04-02T18:56:42.769Z,54.26
2023-04-02T19:00:25.488Z,54.81
2023-04-02T19:03:56.339Z,54.52
2023-04-02T19:07:24.542Z,54.53
2023-04-02T19:10:55.801Z,54.74
2023-04-02T19:14:24.454Z,54.86
2023-04-02T19:18:01.779Z,55.12
2023-04-02T19:21:40.193Z,55.58
2023-04-02T19:25:19.550Z,55.23
2023-04-02T19:28:55.469Z,55.36
2023-04-02T19:32:28.800Z,55.56
2023-04-02T19:36:00.211Z,56.02
2023-04-02T19:39:53.602Z,55.83
2023-04-02T19:43:20.939Z,56.03
2023-04-02T19:46:51.663Z,56.08
2023-04-02T19:50:19.196Z,56.59
2023-04-02T19:53:46.400Z,56.95
2023-04-02T19:57:16.327Z,56.79
2023-04-02T20:00:43.440Z,56.85
2023-04-02T20:04:10.763Z,56.95
2023-04-02T20:07:37.900Z,57.00
2023-04-02T20:11:06.004Z,57.29
2023-04-02T20:14:33.200Z,57.52
2023-04-02T20:18:00.476Z,57.69
2023-04-02T20:21:27.786Z,57.74
2023-04-02T20:24:54.890Z,57.89
2023-04-02T20:28:22.076Z,58.36
2023-04-02T20:31:49.156Z,58.27
2023-04-02T20:35:16.298Z,58.51
2023-04-02T20:38:43.476Z,58.72
2023-04-02T20:42:10.895Z,58.89
2023-04-02T20:45:38.927Z,59.36
2023-04-02T20:49:06.380Z,59.74
2023-04-02T20:52:35.387Z,60.05
2023-04-02T20:56:07.189Z,60.24
2023-04-02T20:59:34.246Z,60.33
2023-04-02T21:03:02.036Z,60.14
2023-04-02T21:06:32.155Z,60.24
2023-04-02T21:09:59.208Z,60.55
2023-04-02T21:13:29.475Z,60.78
2023-04-02T21:16:56.797Z,60.92
2023-04-02T21:20:23.969Z,61.16
2023-04-02T21:23:54.702Z,61.58
2023-04-02T21:27:25.800Z,61.42
2023-04-02T21:30:53.827Z,61.55
2023-04-02T21:34:20.995Z,61.90
2023-04-02T21:37:48.429Z,61.90
2023-04-02T21:41:17.968Z,61.74
2023-04-02T21:44:43.445Z,61.67
2023-04-02T21:48:10.677Z,62.15
2023-04-02T21:51:39.103Z,62.40
2023-04-02T21:55:06.900Z,62.85
2023-04-02T21:58:34.033Z,63.33
2023-04-02T22:02:01.177Z,63.46
2023-04-02T22:05:31.237Z,63.75
2023-04-02T22:09:00.153Z,64.20
2023-04-02T22:13:19.429Z,64.47
2023-04-02T22:17:05.646Z,64.58
2023-04-02T22:20:32.816Z,65.14
2023-04-02T22:24:01.998Z,64.89
2023-04-02T22:27:29.220Z,65.09
2023-04-02T22:30:57.086Z,65.63
2023-04-02T22:34:24.190Z,65.89
2023-04-02T22:37:51.295Z,66.36
2023-04-02T22:41:21.310Z,66.92
2023-04-02T22:44:49.562Z,67.31
2023-04-02T22:48:16.625Z,67.68
2023-04-02T22:51:44.567Z,67.57
2023-04-02T22:55:15.147Z,68.31
2023-04-02T22:58:42.498Z,68.69
2023-04-02T23:02:09.579Z,69.01
2023-04-02T23:05:36.764Z,69.55
2023-04-02T23:09:04.212Z,70.11
2023-04-02T23:12:31.932Z,70.21
2023-04-02T23:15:59.196Z,69.96
2023-04-02T23:19:26.266Z,69.97
2023-04-02T23:22:53.404Z,69.82
2023-04-02T23:26:22.410Z,70.20
2023-04-02T23:29:49.704Z,70.79
2023-04-02T23:33:16.697Z,70.95
2023-04-02T23:36:43.885Z,71.45
2023-04-02T23:40:12.884Z,71.66
2023-04-02T23:43:40.509Z,72.10
2023-04-02T23:47:07.765Z,71.99
2023-04-02T23:50:35.378Z,72.13
2023-04-02T23:54:02.798Z,72.28
2023-04-02T23:57:30.160Z,72.41
